sensor_id;sensor_type;location;lat;lon;timestamp;pressure;altitude;pressure_sealevel;temperature;humidity
56514;BME280;62152;52.078;8.414;2023-05-27T00:00:53;101505.88;;;19.90;45.59
56514;BME280;62152;52.078;8.414;2023-05-27T00:04:55;101509.75;;;19.89;45.49
56514;BME280;62152;52.078;8.414;2023-05-27T00:08:56;101508.94;;;19.89;45.10
56514;BME280;62152;52.078;8.414;2023-05-27T00:12:57;101505.38;;;19.88;45.08
56514;BME280;62152;52.078;8.414;2023-05-27T00:16:58;101499.88;;;19.88;45.28
56514;BME280;62152;52.078;8.414;2023-05-27T00:21:00;101502.63;;;19.88;45.41
56514;BME280;62152;52.078;8.414;2023-05-27T00:25:01;101504.59;;;19.88;45.73
56514;BME280;62152;52.078;8.414;2023-05-27T00:29:01;101499.44;;;19.86;45.44
56514;BME280;62152;52.078;8.414;2023-05-27T00:33:02;101501.03;;;19.87;45.83
56514;BME280;62152;52.078;8.414;2023-05-27T00:37:05;101500.25;;;19.87;45.81
56514;BME280;62152;52.078;8.414;2023-05-27T00:41:07;101504.94;;;19.86;45.38
56514;BME280;62152;52.078;8.414;2023-05-27T00:45:11;101500.25;;;19.87;45.44
56514;BME280;62152;52.078;8.414;2023-05-27T00:49:13;101499.44;;;19.86;45.54
56514;BME280;62152;52.078;8.414;2023-05-27T00:53:16;101492.34;;;19.85;45.58
56514;BME280;62152;52.078;8.414;2023-05-27T00:57:17;101488.44;;;19.86;45.75
56514;BME280;62152;52.078;8.414;2023-05-27T01:01:19;101490.38;;;19.86;45.44
56514;BME280;62152;52.078;8.414;2023-05-27T01:05:20;101487.97;;;19.84;45.67
56514;BME280;62152;52.078;8.414;2023-05-27T01:09:29;101487.19;;;19.84;45.38
56514;BME280;62152;52.078;8.414;2023-05-27T01:13:40;101485.22;;;19.84;45.70
56514;BME280;62152;52.078;8.414;2023-05-27T01:17:45;101489.13;;;19.83;45.34
56514;BME280;62152;52.078;8.414;2023-05-27T01:21:49;101486.38;;;19.83;45.37
56514;BME280;62152;52.078;8.414;2023-05-27T01:25:54;101480.03;;;19.83;45.33
56514;BME280;62152;52.078;8.414;2023-05-27T01:29:55;101485.56;;;19.83;46.06
56514;BME280;62152;52.078;8.414;2023-05-27T01:34:02;101485.91;;;19.81;45.95
56514;BME280;62152;52.078;8.414;2023-05-27T01:38:12;101481.19;;;19.82;45.63
56514;BME280;62152;52.078;8.414;2023-05-27T01:42:20;101479.25;;;19.82;45.88
56514;BME280;62152;52.078;8.414;2023-05-27T01:46:21;101476.84;;;19.81;46.16
56514;BME280;62152;52.078;8.414;2023-05-27T01:50:23;101479.59;;;19.81;45.85
56514;BME280;62152;52.078;8.414;2023-05-27T01:54:24;101474.09;;;19.81;45.47
56514;BME280;62152;52.078;8.414;2023-05-27T01:58:26;101470.53;;;19.80;45.69
56514;BME280;62152;52.078;8.414;2023-05-27T02:02:27;101467.78;;;19.80;45.56
56514;BME280;62152;52.078;8.414;2023-05-27T02:06:27;101466.19;;;19.79;46.07
56514;BME280;62152;52.078;8.414;2023-05-27T02:10:28;101463.44;;;19.79;45.50
56514;BME280;62152;52.078;8.414;2023-05-27T02:14:30;101456.31;;;19.78;46.24
56514;BME280;62152;52.078;8.414;2023-05-27T02:18:31;101450.81;;;19.78;46.05
56514;BME280;62152;52.078;8.414;2023-05-27T02:22:32;101448.06;;;19.78;45.65
56514;BME280;62152;52.078;8.414;2023-05-27T02:26:33;101448.06;;;19.78;46.20
56514;BME280;62152;52.078;8.414;2023-05-27T02:30:38;101450.81;;;19.78;46.16
56514;BME280;62152;52.078;8.414;2023-05-27T02:34:38;101451.97;;;19.77;46.27
56514;BME280;62152;52.078;8.414;2023-05-27T02:38:40;101447.59;;;19.76;46.20
56514;BME280;62152;52.078;8.414;2023-05-27T02:42:40;101444.84;;;19.76;45.78
56514;BME280;62152;52.078;8.414;2023-05-27T02:46:42;101444.84;;;19.76;45.92
56514;BME280;62152;52.078;8.414;2023-05-27T02:50:43;101442.09;;;19.76;45.74
56514;BME280;62152;52.078;8.414;2023-05-27T02:54:44;101441.63;;;19.74;45.92
56514;BME280;62152;52.078;8.414;2023-05-27T02:58:45;101442.44;;;19.75;46.06
56514;BME280;62152;52.078;8.414;2023-05-27T03:02:47;101449.53;;;19.76;46.32
56514;BME280;62152;52.078;8.414;2023-05-27T03:06:48;101459.75;;;19.75;45.74
56514;BME280;62152;52.078;8.414;2023-05-27T03:10:49;101461.72;;;19.75;46.36
56514;BME280;62152;52.078;8.414;2023-05-27T03:14:50;101454.97;;;19.72;46.43
56514;BME280;62152;52.078;8.414;2023-05-27T03:18:52;101457.34;;;19.74;46.15
56514;BME280;62152;52.078;8.414;2023-05-27T03:22:53;101451.06;;;19.73;46.16
56514;BME280;62152;52.078;8.414;2023-05-27T03:26:54;101445.53;;;19.73;46.13
56514;BME280;62152;52.078;8.414;2023-05-27T03:30:55;101439.25;;;19.73;46.07
56514;BME280;62152;52.078;8.414;2023-05-27T03:35:08;101441.19;;;19.72;45.79
56514;BME280;62152;52.078;8.414;2023-05-27T03:39:09;101433.75;;;19.73;46.07
56514;BME280;62152;52.078;8.414;2023-05-27T03:43:14;101432.13;;;19.72;46.27
56514;BME280;62152;52.078;8.414;2023-05-27T03:47:15;101425.84;;;19.71;46.12
56514;BME280;62152;52.078;8.414;2023-05-27T03:51:17;101422.28;;;19.71;46.35
56514;BME280;62152;52.078;8.414;2023-05-27T03:55:19;101425.84;;;19.71;45.90
56514;BME280;62152;52.078;8.414;2023-05-27T03:59:20;101429.75;;;19.70;45.91
56514;BME280;62152;52.078;8.414;2023-05-27T04:03:20;101429.75;;;19.70;46.06
56514;BME280;62152;52.078;8.414;2023-05-27T04:07:25;101435.25;;;19.70;46.02
56514;BME280;62152;52.078;8.414;2023-05-27T04:11:27;101428.09;;;19.69;46.53
56514;BME280;62152;52.078;8.414;2023-05-27T04:15:28;101428.94;;;19.70;45.95
56514;BME280;62152;52.078;8.414;2023-05-27T04:19:28;101417.09;;;19.69;46.50
56514;BME280;62152;52.078;8.414;2023-05-27T04:23:31;101422.59;;;19.69;45.95
56514;BME280;62152;52.078;8.414;2023-05-27T04:27:32;101416.31;;;19.68;46.02
56514;BME280;62152;52.078;8.414;2023-05-27T04:31:33;101415.50;;;19.68;46.07
56514;BME280;62152;52.078;8.414;2023-05-27T04:35:38;101427.66;;;19.67;46.65
56514;BME280;62152;52.078;8.414;2023-05-27T04:39:41;101415.84;;;19.66;46.36
56514;BME280;62152;52.078;8.414;2023-05-27T04:43:42;101418.25;;;19.68;46.46
56514;BME280;62152;52.078;8.414;2023-05-27T04:47:44;101410.00;;;19.68;45.96
56514;BME280;62152;52.078;8.414;2023-05-27T04:51:44;101404.03;;;19.66;46.44
56514;BME280;62152;52.078;8.414;2023-05-27T04:55:47;101406.00;;;19.65;46.10
56514;BME280;62152;52.078;8.414;2023-05-27T04:59:48;101419.75;;;19.65;46.63
56514;BME280;62152;52.078;8.414;2023-05-27T05:03:54;101409.91;;;19.64;46.03
56514;BME280;62152;52.078;8.414;2023-05-27T05:07:55;101399.69;;;19.65;46.64
56514;BME280;62152;52.078;8.414;2023-05-27T05:11:58;101415.06;;;19.66;46.26
56514;BME280;62152;52.078;8.414;2023-05-27T05:15:59;101411.94;;;19.55;46.11
56514;BME280;62152;52.078;8.414;2023-05-27T05:20:00;101400.97;;;19.43;45.94
56514;BME280;62152;52.078;8.414;2023-05-27T05:24:01;101417.25;;;19.36;45.77
56514;BME280;62152;52.078;8.414;2023-05-27T05:28:03;101420.00;;;19.24;45.32
56514;BME280;62152;52.078;8.414;2023-05-27T05:32:06;101419.88;;;19.32;46.05
56514;BME280;62152;52.078;8.414;2023-05-27T05:36:08;101413.69;;;19.35;45.70
56514;BME280;62152;52.078;8.414;2023-05-27T05:40:22;101413.00;;;19.38;45.57
56514;BME280;62152;52.078;8.414;2023-05-27T05:44:40;101410.25;;;19.38;45.75
56514;BME280;62152;52.078;8.414;2023-05-27T05:48:41;101422.84;;;19.27;45.52
56514;BME280;62152;52.078;8.414;2023-05-27T05:52:46;101424.78;;;19.14;45.75
56514;BME280;62152;52.078;8.414;2023-05-27T05:56:47;101425.38;;;19.20;45.71
56514;BME280;62152;52.078;8.414;2023-05-27T06:00:49;101424.22;;;19.21;45.38
56514;BME280;62152;52.078;8.414;2023-05-27T06:05:08;101432.50;;;19.09;45.34
56514;BME280;62152;52.078;8.414;2023-05-27T06:09:10;101436.38;;;19.20;45.59
56514;BME280;62152;52.078;8.414;2023-05-27T06:13:11;101434.78;;;19.19;45.17
56514;BME280;62152;52.078;8.414;2023-05-27T06:17:14;101437.06;;;19.05;46.24
56514;BME280;62152;52.078;8.414;2023-05-27T06:21:15;101433.72;;;18.99;45.87
56514;BME280;62152;52.078;8.414;2023-05-27T06:25:36;101430.06;;;19.07;45.17
56514;BME280;62152;52.078;8.414;2023-05-27T06:29:40;101428.47;;;18.94;45.71
56514;BME280;62152;52.078;8.414;2023-05-27T06:33:43;101434.19;;;19.13;46.04
56514;BME280;62152;52.078;8.414;2023-05-27T06:37:44;101434.09;;;19.22;45.18
56514;BME280;62152;52.078;8.414;2023-05-27T06:41:45;101424.81;;;19.27;45.69
56514;BME280;62152;52.078;8.414;2023-05-27T06:46:04;101421.97;;;19.35;45.61
56514;BME280;62152;52.078;8.414;2023-05-27T06:50:29;101421.25;;;19.38;45.45
56514;BME280;62152;52.078;8.414;2023-05-27T06:54:30;101410.34;;;19.42;45.42
56514;BME280;62152;52.078;8.414;2023-05-27T06:58:49;101402.22;;;19.46;44.98
56514;BME280;62152;52.078;8.414;2023-05-27T07:02:52;101399.69;;;19.53;45.06
56514;BME280;62152;52.078;8.414;2023-05-27T07:06:54;101389.59;;;19.57;45.35
56514;BME280;62152;52.078;8.414;2023-05-27T07:10:55;101397.19;;;19.60;45.49
56514;BME280;62152;52.078;8.414;2023-05-27T07:14:56;101389.38;;;19.62;45.32
56514;BME280;62152;52.078;8.414;2023-05-27T07:18:59;101378.03;;;19.63;45.68
56514;BME280;62152;52.078;8.414;2023-05-27T07:23:05;101379.28;;;19.66;45.38
56514;BME280;62152;52.078;8.414;2023-05-27T07:27:08;101380.06;;;19.66;45.63
56514;BME280;62152;52.078;8.414;2023-05-27T07:31:11;101376.16;;;19.67;45.51
56514;BME280;62152;52.078;8.414;2023-05-27T07:35:19;101375.47;;;19.71;45.65
56514;BME280;62152;52.078;8.414;2023-05-27T07:39:22;101371.56;;;19.72;45.78
56514;BME280;62152;52.078;8.414;2023-05-27T07:43:22;101368.03;;;19.71;46.31
56514;BME280;62152;52.078;8.414;2023-05-27T07:47:23;101373.06;;;19.69;46.11
56514;BME280;62152;52.078;8.414;2023-05-27T07:51:24;101365.16;;;19.67;45.97
56514;BME280;62152;52.078;8.414;2023-05-27T07:55:26;101368.25;;;19.66;46.03
56514;BME280;62152;52.078;8.414;2023-05-27T07:59:27;101360.22;;;19.73;45.85
56514;BME280;62152;52.078;8.414;2023-05-27T08:03:28;101352.88;;;19.77;46.25
56514;BME280;62152;52.078;8.414;2023-05-27T08:07:39;101351.00;;;19.81;46.43
56514;BME280;62152;52.078;8.414;2023-05-27T08:11:46;101341.34;;;19.87;46.58
56514;BME280;62152;52.078;8.414;2023-05-27T08:15:47;101345.81;;;19.92;46.31
56514;BME280;62152;52.078;8.414;2023-05-27T08:20:06;101326.97;;;19.94;46.73
56514;BME280;62152;52.078;8.414;2023-05-27T08:24:28;101338.44;;;19.96;46.73
56514;BME280;62152;52.078;8.414;2023-05-27T08:28:53;101323.53;;;19.97;47.11
56514;BME280;62152;52.078;8.414;2023-05-27T08:37:20;101319.34;;;20.03;46.96
56514;BME280;62152;52.078;8.414;2023-05-27T08:41:22;101311.19;;;20.07;46.87
56514;BME280;62152;52.078;8.414;2023-05-27T08:45:25;101305.69;;;20.07;46.61
56514;BME280;62152;52.078;8.414;2023-05-27T08:49:26;101303.19;;;20.02;46.63
56514;BME280;62152;52.078;8.414;2023-05-27T08:53:28;101303.19;;;20.02;46.55
56514;BME280;62152;52.078;8.414;2023-05-27T08:57:33;101292.53;;;20.00;46.88
56514;BME280;62152;52.078;8.414;2023-05-27T09:01:37;101289.22;;;19.94;46.54
56514;BME280;62152;52.078;8.414;2023-05-27T09:05:39;101280.59;;;19.96;45.96
56514;BME280;62152;52.078;8.414;2023-05-27T09:09:40;101270.50;;;20.00;46.01
56514;BME280;62152;52.078;8.414;2023-05-27T09:13:42;101276.09;;;20.04;46.00
56514;BME280;62152;52.078;8.414;2023-05-27T09:17:45;101267.81;;;20.04;45.61
56514;BME280;62152;52.078;8.414;2023-05-27T09:21:47;101261.19;;;20.05;45.58
56514;BME280;62152;52.078;8.414;2023-05-27T09:25:49;101262.97;;;19.97;45.20
56514;BME280;62152;52.078;8.414;2023-05-27T09:29:50;101263.75;;;19.98;44.99
56514;BME280;62152;52.078;8.414;2023-05-27T09:33:52;101264.19;;;20.00;44.90
56514;BME280;62152;52.078;8.414;2023-05-27T09:37:52;101258.25;;;19.98;45.70
56514;BME280;62152;52.078;8.414;2023-05-27T09:41:54;101259.13;;;20.02;45.08
56514;BME280;62152;52.078;8.414;2023-05-27T09:45:58;101250.94;;;19.89;44.93
56514;BME280;62152;52.078;8.414;2023-05-27T09:50:04;101255.34;;;19.50;44.27
56514;BME280;62152;52.078;8.414;2023-05-27T09:54:09;101244.25;;;19.75;44.51
56514;BME280;62152;52.078;8.414;2023-05-27T09:58:16;101253.59;;;19.86;44.92
56514;BME280;62152;52.078;8.414;2023-05-27T10:02:18;101247.06;;;19.90;44.32
56514;BME280;62152;52.078;8.414;2023-05-27T10:06:24;101241.97;;;19.92;44.24
56514;BME280;62152;52.078;8.414;2023-05-27T10:10:27;101234.88;;;19.91;45.18
56514;BME280;62152;52.078;8.414;2023-05-27T10:14:28;101232.91;;;19.92;45.21
56514;BME280;62152;52.078;8.414;2023-05-27T10:18:30;101223.06;;;19.91;44.92
56514;BME280;62152;52.078;8.414;2023-05-27T10:22:42;101220.31;;;19.91;45.18
56514;BME280;62152;52.078;8.414;2023-05-27T10:26:45;101216.75;;;19.90;44.83
56514;BME280;62152;52.078;8.414;2023-05-27T10:30:46;101210.09;;;19.91;44.97
56514;BME280;62152;52.078;8.414;2023-05-27T10:34:47;101207.34;;;19.91;44.84
56514;BME280;62152;52.078;8.414;2023-05-27T10:38:57;101204.59;;;19.91;45.05
56514;BME280;62152;52.078;8.414;2023-05-27T10:42:59;101198.28;;;19.91;44.89
56514;BME280;62152;52.078;8.414;2023-05-27T10:47:01;101200.69;;;19.92;45.19
56514;BME280;62152;52.078;8.414;2023-05-27T10:51:02;101189.66;;;19.92;44.92
56514;BME280;62152;52.078;8.414;2023-05-27T10:55:06;101186.91;;;19.92;45.40
56514;BME280;62152;52.078;8.414;2023-05-27T10:59:18;101184.16;;;19.92;45.44
56514;BME280;62152;52.078;8.414;2023-05-27T11:03:20;101180.59;;;19.92;45.12
56514;BME280;62152;52.078;8.414;2023-05-27T11:07:22;101179.81;;;19.91;44.71
56514;BME280;62152;52.078;8.414;2023-05-27T11:11:24;101175.91;;;19.92;45.34
56514;BME280;62152;52.078;8.414;2023-05-27T11:15:25;101173.16;;;19.92;44.76
56514;BME280;62152;52.078;8.414;2023-05-27T11:19:25;101167.63;;;19.92;45.29
56514;BME280;62152;52.078;8.414;2023-05-27T11:23:34;101164.88;;;19.92;45.57
56514;BME280;62152;52.078;8.414;2023-05-27T11:27:38;101158.22;;;19.93;44.95
56514;BME280;62152;52.078;8.414;2023-05-27T11:31:40;101158.22;;;19.93;44.94
56514;BME280;62152;52.078;8.414;2023-05-27T11:35:41;101152.72;;;19.93;45.01
56514;BME280;62152;52.078;8.414;2023-05-27T11:39:49;101152.72;;;19.93;45.41
56514;BME280;62152;52.078;8.414;2023-05-27T11:43:55;101143.28;;;19.94;45.52
56514;BME280;62152;52.078;8.414;2023-05-27T11:47:56;101135.03;;;19.94;45.44
56514;BME280;62152;52.078;8.414;2023-05-27T11:51:57;101135.03;;;19.94;45.44
56514;BME280;62152;52.078;8.414;2023-05-27T11:55:58;101122.06;;;19.95;45.38
56514;BME280;62152;52.078;8.414;2023-05-27T12:00:00;101121.28;;;19.94;44.89
56514;BME280;62152;52.078;8.414;2023-05-27T12:04:01;101124.47;;;19.97;45.35
56514;BME280;62152;52.078;8.414;2023-05-27T12:08:02;101107.94;;;19.97;45.67
56514;BME280;62152;52.078;8.414;2023-05-27T12:12:03;101103.25;;;19.97;45.35
56514;BME280;62152;52.078;8.414;2023-05-27T12:16:06;101103.25;;;19.97;44.91
56514;BME280;62152;52.078;8.414;2023-05-27T12:20:07;101083.16;;;19.97;45.50
56514;BME280;62152;52.078;8.414;2023-05-27T12:24:08;101086.72;;;19.97;45.13
56514;BME280;62152;52.078;8.414;2023-05-27T12:28:10;101077.31;;;19.98;45.50
56514;BME280;62152;52.078;8.414;2023-05-27T12:32:12;101067.09;;;19.99;45.50
56514;BME280;62152;52.078;8.414;2023-05-27T12:36:13;101063.53;;;19.98;45.59
56514;BME280;62152;52.078;8.414;2023-05-27T12:40:13;101059.63;;;19.99;45.71
56514;BME280;62152;52.078;8.414;2023-05-27T12:44:14;101062.38;;;19.99;45.69
56514;BME280;62152;52.078;8.414;2023-05-27T12:48:17;101051.38;;;19.99;45.12
56514;BME280;62152;52.078;8.414;2023-05-27T12:52:17;101055.72;;;20.00;45.49
56514;BME280;62152;52.078;8.414;2023-05-27T12:56:18;101047.81;;;19.99;45.23
56514;BME280;62152;52.078;8.414;2023-05-27T13:00:20;101045.50;;;20.01;45.04
56514;BME280;62152;52.078;8.414;2023-05-27T13:08:23;101031.72;;;20.01;45.48
56514;BME280;62152;52.078;8.414;2023-05-27T13:20:27;101016.81;;;20.02;45.02
56514;BME280;62152;52.078;8.414;2023-05-27T13:24:28;101012.09;;;20.02;45.67
56514;BME280;62152;52.078;8.414;2023-05-27T13:28:28;101011.28;;;20.02;45.04
56514;BME280;62152;52.078;8.414;2023-05-27T13:32:29;101004.63;;;20.03;45.10
56514;BME280;62152;52.078;8.414;2023-05-27T13:36:31;100998.31;;;20.02;45.51
56514;BME280;62152;52.078;8.414;2023-05-27T13:40:32;100997.16;;;20.03;45.28
56514;BME280;62152;52.078;8.414;2023-05-27T13:44:33;100995.19;;;20.04;45.18
56514;BME280;62152;52.078;8.414;2023-05-27T13:48:34;100985.00;;;20.04;45.04
56514;BME280;62152;52.078;8.414;2023-05-27T13:52:36;100981.44;;;20.04;45.34
56514;BME280;62152;52.078;8.414;2023-05-27T13:56:37;100979.13;;;20.06;45.82
56514;BME280;62152;52.078;8.414;2023-05-27T14:00:38;100970.88;;;20.06;45.23
56514;BME280;62152;52.078;8.414;2023-05-27T14:04:39;100973.63;;;20.06;45.04
56514;BME280;62152;52.078;8.414;2023-05-27T14:08:41;100968.13;;;20.06;45.52
56514;BME280;62152;52.078;8.414;2023-05-27T14:12:42;100955.53;;;20.05;45.56
56514;BME280;62152;52.078;8.414;2023-05-27T14:16:43;100947.25;;;20.05;45.76
56514;BME280;62152;52.078;8.414;2023-05-27T14:20:43;100943.34;;;20.06;45.70
56514;BME280;62152;52.078;8.414;2023-05-27T14:24:46;100932.75;;;20.08;45.51
56514;BME280;62152;52.078;8.414;2023-05-27T14:28:46;100939.84;;;20.09;45.29
56514;BME280;62152;52.078;8.414;2023-05-27T14:32:47;100932.03;;;20.11;45.64
56514;BME280;62152;52.078;8.414;2023-05-27T14:36:48;100928.13;;;20.12;45.27
56514;BME280;62152;52.078;8.414;2023-05-27T14:40:50;100927.38;;;20.15;45.18
56514;BME280;62152;52.078;8.414;2023-05-27T14:44:51;100911.28;;;20.17;45.63
56514;BME280;62152;52.078;8.414;2023-05-27T14:48:52;100919.22;;;20.18;45.07
56514;BME280;62152;52.078;8.414;2023-05-27T14:52:53;100914.94;;;20.21;45.67
56514;BME280;62152;52.078;8.414;2023-05-27T14:56:55;100915.34;;;20.23;44.83
56514;BME280;62152;52.078;8.414;2023-05-27T15:00:56;100907.16;;;20.27;45.53
56514;BME280;62152;52.078;8.414;2023-05-27T15:04:57;100911.16;;;20.29;45.51
56514;BME280;62152;52.078;8.414;2023-05-27T15:08:58;100906.50;;;20.33;45.45
56514;BME280;62152;52.078;8.414;2023-05-27T15:13:00;100912.06;;;20.37;45.00
56514;BME280;62152;52.078;8.414;2023-05-27T15:17:01;100900.34;;;20.40;45.15
56514;BME280;62152;52.078;8.414;2023-05-27T15:21:01;100897.63;;;20.43;45.25
56514;BME280;62152;52.078;8.414;2023-05-27T15:25:03;100895.78;;;20.47;44.90
56514;BME280;62152;52.078;8.414;2023-05-27T15:29:06;100893.88;;;20.52;44.58
56514;BME280;62152;52.078;8.414;2023-05-27T15:33:07;100897.50;;;20.56;44.67
56514;BME280;62152;52.078;8.414;2023-05-27T15:37:07;100896.75;;;20.59;45.11
56514;BME280;62152;52.078;8.414;2023-05-27T15:41:08;100889.38;;;20.63;44.87
56514;BME280;62152;52.078;8.414;2023-05-27T15:45:11;100891.41;;;20.66;44.34
56514;BME280;62152;52.078;8.414;2023-05-27T15:49:13;100883.97;;;20.70;44.95
56514;BME280;62152;52.078;8.414;2023-05-27T15:53:14;100878.16;;;20.75;44.18
56514;BME280;62152;52.078;8.414;2023-05-27T15:57:15;100873.50;;;20.79;44.35
56514;BME280;62152;52.078;8.414;2023-05-27T16:01:18;100874.38;;;20.83;44.50
56514;BME280;62152;52.078;8.414;2023-05-27T16:05:19;100868.94;;;20.87;44.18
56514;BME280;62152;52.078;8.414;2023-05-27T16:09:20;100858.72;;;20.91;44.50
56514;BME280;62152;52.078;8.414;2023-05-27T16:13:22;100855.66;;;20.96;44.44
56514;BME280;62152;52.078;8.414;2023-05-27T16:17:25;100854.13;;;20.98;43.97
56514;BME280;62152;52.078;8.414;2023-05-27T16:21:26;100847.88;;;21.01;44.02
56514;BME280;62152;52.078;8.414;2023-05-27T16:25:27;100843.19;;;21.06;43.66
56514;BME280;62152;52.078;8.414;2023-05-27T16:29:28;100835.00;;;21.09;43.77
56514;BME280;62152;52.078;8.414;2023-05-27T16:33:30;100832.28;;;21.13;44.45
56514;BME280;62152;52.078;8.414;2023-05-27T16:37:31;100836.28;;;21.15;44.03
56514;BME280;62152;52.078;8.414;2023-05-27T16:41:31;100841.81;;;21.19;43.72
56514;BME280;62152;52.078;8.414;2023-05-27T16:45:32;100828.47;;;21.21;43.62
56514;BME280;62152;52.078;8.414;2023-05-27T16:49:34;100827.63;;;21.17;43.26
56514;BME280;62152;52.078;8.414;2023-05-27T16:53:35;100821.72;;;21.18;42.26
56514;BME280;62152;52.078;8.414;2023-05-27T16:57:36;100824.06;;;21.16;42.13
56514;BME280;62152;52.078;8.414;2023-05-27T17:01:37;100806.03;;;21.22;41.65
56514;BME280;62152;52.078;8.414;2023-05-27T17:05:39;100822.41;;;21.12;41.13
56514;BME280;62152;52.078;8.414;2023-05-27T17:09:40;100815.81;;;21.20;42.29
56514;BME280;62152;52.078;8.414;2023-05-27T17:13:41;100815.72;;;21.13;41.29
56514;BME280;62152;52.078;8.414;2023-05-27T17:17:41;100811.38;;;21.12;40.86
56514;BME280;62152;52.078;8.414;2023-05-27T17:21:43;100806.84;;;21.26;40.74
56514;BME280;62152;52.078;8.414;2023-05-27T17:25:44;100792.84;;;21.35;40.78
56514;BME280;62152;52.078;8.414;2023-05-27T17:29:45;100795.59;;;21.35;41.44
56514;BME280;62152;52.078;8.414;2023-05-27T17:33:46;100803.13;;;21.38;41.11
56514;BME280;62152;52.078;8.414;2023-05-27T17:37:48;100808.63;;;21.38;40.91
56514;BME280;62152;52.078;8.414;2023-05-27T17:41:49;100809.84;;;21.41;41.46
56514;BME280;62152;52.078;8.414;2023-05-27T17:45:50;100796.81;;;21.38;40.62
56514;BME280;62152;52.078;8.414;2023-05-27T17:49:51;100797.44;;;21.27;41.90
56514;BME280;62152;52.078;8.414;2023-05-27T17:53:53;100807.03;;;21.11;41.88
56514;BME280;62152;52.078;8.414;2023-05-27T17:57:54;100806.06;;;20.99;41.78
56514;BME280;62152;52.078;8.414;2023-05-27T18:01:55;100802.38;;;20.88;42.01
56514;BME280;62152;52.078;8.414;2023-05-27T18:05:56;100786.91;;;20.80;41.33
56514;BME280;62152;52.078;8.414;2023-05-27T18:09:58;100791.13;;;20.74;41.58
56514;BME280;62152;52.078;8.414;2023-05-27T18:13:59;100794.19;;;20.69;41.52
56514;BME280;62152;52.078;8.414;2023-05-27T18:18:01;100800.81;;;20.64;42.21
56514;BME280;62152;52.078;8.414;2023-05-27T18:22:01;100799.59;;;20.62;42.44
56514;BME280;62152;52.078;8.414;2023-05-27T18:26:04;100795.97;;;20.58;42.45
56514;BME280;62152;52.078;8.414;2023-05-27T18:30:06;100797.50;;;20.55;42.26
56514;BME280;62152;52.078;8.414;2023-05-27T18:34:07;100797.00;;;20.49;42.58
56514;BME280;62152;52.078;8.414;2023-05-27T18:38:08;100800.16;;;20.48;41.82
56514;BME280;62152;52.078;8.414;2023-05-27T18:42:10;100799.72;;;20.46;42.75
56514;BME280;62152;52.078;8.414;2023-05-27T18:46:11;100800.78;;;20.41;42.20
56514;BME280;62152;52.078;8.414;2023-05-27T18:50:12;100799.56;;;20.39;42.42
56514;BME280;62152;52.078;8.414;2023-05-27T18:54:13;100801.88;;;20.37;42.28
56514;BME280;62152;52.078;8.414;2023-05-27T18:58:15;100805.38;;;20.34;42.45
56514;BME280;62152;52.078;8.414;2023-05-27T19:02:16;100802.19;;;20.32;42.29
56514;BME280;62152;52.078;8.414;2023-05-27T19:06:17;100793.88;;;20.28;42.06
56514;BME280;62152;52.078;8.414;2023-05-27T19:10:18;100793.44;;;20.26;42.28
56514;BME280;62152;52.078;8.414;2023-05-27T19:14:20;100790.59;;;20.22;42.42
56514;BME280;62152;52.078;8.414;2023-05-27T19:18:21;100789.38;;;20.20;42.40
56514;BME280;62152;52.078;8.414;2023-05-27T19:22:22;100796.88;;;20.19;42.31
56514;BME280;62152;52.078;8.414;2023-05-27T19:26:23;100795.63;;;20.17;42.56
56514;BME280;62152;52.078;8.414;2023-05-27T19:30:25;100786.94;;;20.15;42.89
56514;BME280;62152;52.078;8.414;2023-05-27T19:34:26;100792.81;;;20.13;43.06
56514;BME280;62152;52.078;8.414;2023-05-27T19:38:27;100791.59;;;20.11;42.86
56514;BME280;62152;52.078;8.414;2023-05-27T19:42:28;100787.22;;;20.10;43.25
56514;BME280;62152;52.078;8.414;2023-05-27T19:46:30;100784.06;;;20.08;42.67
56514;BME280;62152;52.078;8.414;2023-05-27T19:50:31;100785.59;;;20.05;43.29
56514;BME280;62152;52.078;8.414;2023-05-27T19:54:32;100787.53;;;20.05;42.82
56514;BME280;62152;52.078;8.414;2023-05-27T19:58:33;100782.38;;;20.03;43.21
56514;BME280;62152;52.078;8.414;2023-05-27T20:02:35;100780.00;;;20.02;43.31
56514;BME280;62152;52.078;8.414;2023-05-27T20:06:36;100779.63;;;20.03;43.17
56514;BME280;62152;52.078;8.414;2023-05-27T20:10:38;100777.66;;;20.04;43.55
56514;BME280;62152;52.078;8.414;2023-05-27T20:14:39;100782.38;;;20.03;43.38
56514;BME280;62152;52.078;8.414;2023-05-27T20:18:42;100778.41;;;20.01;43.28
56514;BME280;62152;52.078;8.414;2023-05-27T20:22:43;100783.53;;;20.02;43.25
56514;BME280;62152;52.078;8.414;2023-05-27T20:26:43;100781.59;;;20.03;43.17
56514;BME280;62152;52.078;8.414;2023-05-27T20:30:44;100778.41;;;20.01;44.04
56514;BME280;62152;52.078;8.414;2023-05-27T20:34:47;100778.41;;;20.01;43.30
56514;BME280;62152;52.078;8.414;2023-05-27T20:38:48;100779.56;;;20.00;43.75
56514;BME280;62152;52.078;8.414;2023-05-27T20:42:49;100783.13;;;20.00;43.65
56514;BME280;62152;52.078;8.414;2023-05-27T20:46:50;100776.41;;;19.98;43.75
56514;BME280;62152;52.078;8.414;2023-05-27T20:50:52;100784.66;;;19.98;43.86
56514;BME280;62152;52.078;8.414;2023-05-27T20:54:53;100777.53;;;19.97;43.65
56514;BME280;62152;52.078;8.414;2023-05-27T20:58:54;100772.03;;;19.97;43.68
56514;BME280;62152;52.078;8.414;2023-05-27T21:02:55;100773.19;;;19.95;44.31
56514;BME280;62152;52.078;8.414;2023-05-27T21:06:58;100760.59;;;19.94;44.37
56514;BME280;62152;52.078;8.414;2023-05-27T21:10:58;100760.59;;;19.94;44.13
56514;BME280;62152;52.078;8.414;2023-05-27T21:14:59;100761.75;;;19.93;44.42
56514;BME280;62152;52.078;8.414;2023-05-27T21:19:00;100758.22;;;19.93;44.43
56514;BME280;62152;52.078;8.414;2023-05-27T21:23:02;100756.63;;;19.92;44.57